Tuxedo, NC

4:18 AM EDT on September 21, 2014 (GMT -0400)
Ridgeview | Change Station
CLOSE
Current Station
Personal Weather Station
Location: Flat Rock, NC
Elevation: 2425 ft
Nearby Weather Stations

Elev 2425 ft 35.26 °N, 82.45 °W | Updated 9 seconds ago

Partly Cloudy
Partly Cloudy
54.8 °F
Feels Like 54.8 °F
N
0.0
Wind Variable Wind from WSW
Gusts 0.0 mph

Today
High -- | Low -- °F
--% Chance of Precip.
Yesterday
High -- | Low -- °F
Precip. -- in
7:16 AM 7:28 PM
Waning Crescent, 8% visible
Pressure 30.00 in
Visibility 10.0 miles
Clouds Mostly Cloudy 400 ft
Dew Point 54 °F
Humidity 98%
Rainfall 0.00 in
Snow Depth Not available.
UV 0 out of 12
Pollen 7.00 out of 12
Ozone Good
PM2.5 Good
Flu Activity Not available.
METAR KAVL 210754Z AUTO 00000KT 10SM R34/2000VP6000FT BKN004 13/12 A3006 RMK AO2 SLP157 T01330122

More Conditions Fewer Conditions

Pressure 30.00 in
Visibility 10.0 miles
Clouds Mostly Cloudy 400 ft
Dew Point 54 °F
Humidity 98%
Rainfall 0.00 in
Snow Depth Not available.
UV 0 out of 12
Pollen 7.00 out of 12
Ozone Good
PM2.5 Good
Flu Activity Not available.
METAR KAVL 210754Z AUTO 00000KT 10SM R34/2000VP6000FT BKN004 13/12 A3006 RMK AO2 SLP157 T01330122

More Conditions Fewer Conditions

10-Day Weather Forecast

Almanac

Astronomy

Sep. 21, 2014 Rise Set
Actual Time 7:16 AM EDT 7:28 PM EDT
Civil Twilight 6:51 AM EDT 7:53 PM EDT
Nautical Twilight 6:21 AM EDT 8:22 PM EDT
Astronomical Twilight 5:51 AM EDT 8:52 PM EDT
Moon 4:53 AM EDT 6:00 PM EDT
Length of Visible Light 13h 01m
Length of Day
12h 11m
Tomorrow will be 2m 12s shorter.
Waning Crescent, 8% of the Moon is Illuminated
Today
Waning Crescent
Sep 24
New
Oct 1
First Quarter
Oct 8
Full
Oct 15
Last Quarter

Today's Extremes

State Highs State Lows

Community

WunderPhotos

Upload Photos

1,755,101 photos uploaded!

Nearby

Air Quality

  Air Quality AQ Index Pollutant
Yesterday Good
OZONE
Yesterday Good
PM2.5
Current Good
PM2.5
Current Good
OZONE
Sunday Good
PM2.5
Sunday Good
OZONE
Monday Good
PM2.5
Monday Good
OZONE
Tuesday Good
PM2.5
Tuesday Good
OZONE

Snow Depth

Station Depth Elevation
No new snow has been reported.

Earthquake Activity

City Distance Mag. Time & Date
Sweetwater, Tennessee 115 miles 2.5 3:54 PM EDT
2014-09-20
New Ellenton, South Carolina 129 miles 2.6 4:38 PM EDT
2014-09-19
Minimum magnitude displayed is 2.5.

Coastal Water Temperatures

Place Temperature
No Stations Reporting

Nearby Weather Stations